createdAt,value
2023-02-06T00:08:34.358Z,20.35
2023-02-06T00:17:05.587Z,12.90
2023-02-06T00:30:31.670Z,4.50
2023-02-06T00:33:42.556Z,7.28
2023-02-06T00:47:38.480Z,3.78
2023-02-06T00:51:14.854Z,4.53
2023-02-06T00:54:39.566Z,4.80
2023-02-06T00:57:52.508Z,6.65
2023-02-06T01:07:58.314Z,5.03
2023-02-06T01:19:03.691Z,5.20
2023-02-06T01:21:42.774Z,4.03
2023-02-06T01:24:48.037Z,5.07
2023-02-06T01:32:27.902Z,5.85
2023-02-06T01:35:40.297Z,5.53
2023-02-06T01:38:53.755Z,5.78
2023-02-06T01:42:18.941Z,6.22
2023-02-06T01:49:22.787Z,3.08
2023-02-06T01:55:45.269Z,4.22
2023-02-06T01:59:23.039Z,2.83
2023-02-06T02:02:29.669Z,3.28
2023-02-06T02:05:45.658Z,2.33
2023-02-06T02:08:58.314Z,4.40
2023-02-06T02:15:22.457Z,6.78
2023-02-06T02:19:05.166Z,4.18
2023-02-06T02:22:34.912Z,4.07
2023-02-06T02:27:18.061Z,3.03
2023-02-06T02:34:13.642Z,3.30
2023-02-06T02:37:40.096Z,2.65
2023-02-06T02:41:04.398Z,1.98
2023-02-06T02:44:42.308Z,1.83
2023-02-06T02:52:12.379Z,2.55
2023-02-06T02:55:38.786Z,2.35
2023-02-06T02:59:15.343Z,3.72
2023-02-06T03:02:52.859Z,3.65
2023-02-06T03:06:56.138Z,2.35
2023-02-06T03:10:22.225Z,2.50
2023-02-06T03:17:50.377Z,4.03
2023-02-06T03:21:01.817Z,3.45
2023-02-06T03:58:24.896Z,7.22
2023-02-06T05:07:05.958Z,10.45
2023-02-06T05:24:52.620Z,7.65
2023-02-06T05:35:18.905Z,10.55
2023-02-06T06:00:06.102Z,13.25
2023-02-06T06:11:36.885Z,10.07
2023-02-06T06:14:46.589Z,8.52
2023-02-06T06:19:09.351Z,9.40
2023-02-06T06:22:05.071Z,12.07
2023-02-06T06:29:12.886Z,12.40
2023-02-06T06:33:46.991Z,10.98
2023-02-06T06:43:23.115Z,10.02
2023-02-06T06:46:58.578Z,14.25
2023-02-06T06:50:20.229Z,7.97
2023-02-06T07:01:30.481Z,13.88
2023-02-06T07:09:55.142Z,12.13
2023-02-06T07:28:33.410Z,19.33
2023-02-06T07:34:52.954Z,15.63
2023-02-06T07:38:02.717Z,16.92
2023-02-06T07:41:15.352Z,19.52
2023-02-06T07:44:27.670Z,11.77
2023-02-06T07:47:36.159Z,10.38
2023-02-06T07:50:43.596Z,10.13
2023-02-06T07:53:52.481Z,7.70
2023-02-06T07:57:23.962Z,8.50
2023-02-06T08:00:48.310Z,9.73
2023-02-06T08:03:56.179Z,9.55
2023-02-06T08:10:45.585Z,12.85
2023-02-06T08:17:55.085Z,10.00
2023-02-06T08:24:57.685Z,9.93
2023-02-06T08:33:16.975Z,10.48
2023-02-06T08:36:26.986Z,14.45
2023-02-06T08:43:10.719Z,6.93
2023-02-06T08:50:13.490Z,7.90
2023-02-06T08:53:40.175Z,14.02
2023-02-06T09:21:25.108Z,11.27
2023-02-06T09:24:50.840Z,16.35
2023-02-06T09:29:08.153Z,16.75
2023-02-06T09:31:41.192Z,8.35
2023-02-06T09:39:02.258Z,8.35
2023-02-06T09:42:23.598Z,7.03
2023-02-06T09:50:11.514Z,9.18
2023-02-06T09:53:52.489Z,8.27
2023-02-06T10:01:17.776Z,11.98
2023-02-06T10:12:27.330Z,6.50
2023-02-06T10:15:57.900Z,8.43
2023-02-06T10:23:59.120Z,7.43
2023-02-06T10:27:29.144Z,4.75
2023-02-06T11:49:48.295Z,4.95
2023-02-06T11:53:22.480Z,4.50
2023-02-06T11:56:49.140Z,3.35
2023-02-06T12:03:56.210Z,4.22
2023-02-06T12:07:21.430Z,6.85
2023-02-06T12:18:03.396Z,5.13
2023-02-06T12:21:26.078Z,5.40
2023-02-06T12:24:42.805Z,10.43
2023-02-06T12:27:55.422Z,6.38
2023-02-06T12:31:23.924Z,8.48
2023-02-06T12:34:45.319Z,6.18
2023-02-06T12:38:01.244Z,9.23
2023-02-06T12:41:40.628Z,4.75
2023-02-06T12:45:14.164Z,8.05
2023-02-06T12:52:51.151Z,6.88
2023-02-06T12:56:29.955Z,10.70
2023-02-06T13:00:15.325Z,8.95
2023-02-06T13:03:58.291Z,7.15
2023-02-06T13:07:23.501Z,10.80
2023-02-06T13:13:53.872Z,23.30
2023-02-06T14:16:33.676Z,46.30
2023-02-06T14:20:24.498Z,27.23
2023-02-06T16:44:44.618Z,28.88
2023-02-06T16:48:00.691Z,24.48
2023-02-06T16:54:34.420Z,26.98
2023-02-06T16:57:45.817Z,22.60
2023-02-06T17:00:52.645Z,17.77
2023-02-06T17:04:00.573Z,20.88
2023-02-06T17:07:49.895Z,21.52
2023-02-06T17:17:26.175Z,19.92
2023-02-06T17:44:29.666Z,56.28
2023-02-06T17:47:39.267Z,87.72
2023-02-06T17:51:38.816Z,73.78
2023-02-06T17:54:44.999Z,63.53
2023-02-06T17:58:04.346Z,57.95
2023-02-06T18:02:24.666Z,47.13
2023-02-06T18:08:39.546Z,26.42
2023-02-06T18:11:44.852Z,34.50
2023-02-06T18:14:50.481Z,33.75
2023-02-06T18:17:57.624Z,25.15
2023-02-06T18:21:05.414Z,31.13
2023-02-06T18:24:29.918Z,26.27
2023-02-06T18:27:42.686Z,38.67
2023-02-06T18:39:32.173Z,26.15
2023-02-06T18:42:51.541Z,34.60
2023-02-06T18:45:55.805Z,35.70
2023-02-06T18:49:00.553Z,33.40
2023-02-06T18:52:06.245Z,28.23
2023-02-06T18:58:14.525Z,38.92
2023-02-06T19:01:22.453Z,31.27
2023-02-06T19:04:26.677Z,30.00
2023-02-06T19:07:31.454Z,22.77
2023-02-06T19:10:36.084Z,22.55
2023-02-06T19:13:40.701Z,21.55
2023-02-06T19:16:47.322Z,29.30
2023-02-06T19:19:52.015Z,38.13
2023-02-06T19:22:57.011Z,29.40
2023-02-06T19:26:04.904Z,28.48
2023-02-06T19:29:13.903Z,27.27
2023-02-06T19:32:18.669Z,29.20
2023-02-06T19:35:23.462Z,27.90
2023-02-06T19:38:27.908Z,22.08
2023-02-06T19:41:33.453Z,21.73
2023-02-06T19:44:37.821Z,21.10
2023-02-06T19:47:42.454Z,24.85
2023-02-06T19:50:46.965Z,24.13
2023-02-06T19:53:53.025Z,20.52
2023-02-06T19:56:57.412Z,21.38
2023-02-06T20:00:01.956Z,23.83
2023-02-06T20:03:06.415Z,26.95
2023-02-06T20:06:12.676Z,24.23
2023-02-06T20:09:19.591Z,25.50
2023-02-06T20:12:24.189Z,26.35
2023-02-06T20:15:31.917Z,15.50
2023-02-06T20:18:36.865Z,18.80
2023-02-06T20:21:44.233Z,15.60
2023-02-06T20:24:49.000Z,11.43
2023-02-06T20:27:53.264Z,14.25
2023-02-06T20:30:57.699Z,11.98
2023-02-06T20:34:02.605Z,12.53
2023-02-06T20:40:11.775Z,11.05
2023-02-06T20:43:16.180Z,12.05
2023-02-06T20:46:21.671Z,25.55
2023-02-06T20:53:03.670Z,8.95
2023-02-06T20:56:13.195Z,9.43
2023-02-06T20:59:20.950Z,9.32
2023-02-06T21:02:28.570Z,11.02
2023-02-06T21:05:44.982Z,13.13
2023-02-06T21:12:22.483Z,9.10
2023-02-06T21:26:54.565Z,15.40
2023-02-06T21:30:01.948Z,12.00
2023-02-06T21:33:18.677Z,13.55
2023-02-06T21:36:56.401Z,14.85
2023-02-06T21:52:19.660Z,23.90
2023-02-06T21:55:25.953Z,22.17
2023-02-06T22:01:51.504Z,14.93
2023-02-06T22:05:00.834Z,15.13
2023-02-06T22:08:07.458Z,17.00
2023-02-06T22:11:14.874Z,13.88
2023-02-06T22:14:20.391Z,10.77
2023-02-06T22:17:26.189Z,13.32
2023-02-06T22:20:35.908Z,13.02
2023-02-06T22:23:48.579Z,11.98
2023-02-06T22:26:53.559Z,12.32
2023-02-06T22:29:58.417Z,12.50
2023-02-06T22:33:04.017Z,18.25
2023-02-06T22:36:18.727Z,12.75
2023-02-06T22:39:25.515Z,12.75
2023-02-06T22:42:30.559Z,17.80
2023-02-06T22:45:45.297Z,20.83
2023-02-06T22:48:52.660Z,17.90
2023-02-06T22:52:00.760Z,25.13
2023-02-06T22:55:07.032Z,33.45
2023-02-06T22:58:13.959Z,27.13
2023-02-06T23:01:22.123Z,32.70
2023-02-06T23:04:37.059Z,25.00
2023-02-06T23:07:41.770Z,27.77
2023-02-06T23:10:49.366Z,19.70
2023-02-06T23:14:02.985Z,18.15
2023-02-06T23:17:08.590Z,26.25
2023-02-06T23:20:14.152Z,33.63
2023-02-06T23:26:24.139Z,35.33
2023-02-06T23:29:31.826Z,31.42
2023-02-06T23:32:36.558Z,25.17
2023-02-06T23:35:41.756Z,32.63
2023-02-06T23:38:48.040Z,30.52
2023-02-06T23:41:52.856Z,29.35
2023-02-06T23:45:00.388Z,32.40
2023-02-06T23:51:11.193Z,29.47
2023-02-06T23:54:16.349Z,31.35
2023-02-06T23:57:21.402Z,29.45
